createdAt,value
2022-09-21T00:01:23.311Z,92.62
2022-09-21T00:03:58.804Z,92.83
2022-09-21T00:06:27.561Z,93.17
2022-09-21T00:08:55.574Z,93.30
2022-09-21T00:11:26.188Z,93.70
2022-09-21T00:13:55.377Z,94.00
2022-09-21T00:16:23.952Z,94.07
2022-09-21T00:18:50.853Z,94.52
2022-09-21T00:21:18.290Z,94.67
2022-09-21T00:23:45.787Z,95.00
2022-09-21T00:26:15.690Z,95.08
2022-09-21T00:28:43.776Z,95.07
2022-09-21T00:31:12.685Z,95.17
2022-09-21T00:33:40.943Z,95.29
2022-09-21T00:36:14.234Z,95.53
2022-09-21T00:38:41.709Z,95.86
2022-09-21T00:41:10.352Z,95.97
2022-09-21T00:43:40.888Z,96.33
2022-09-21T00:46:16.317Z,96.42
2022-09-21T00:48:43.609Z,96.60
2022-09-21T00:51:10.773Z,96.62
2022-09-21T00:53:38.863Z,96.55
2022-09-21T00:56:07.433Z,96.45
2022-09-21T00:58:40.595Z,97.09
2022-09-21T01:01:07.502Z,97.39
2022-09-21T01:03:34.473Z,97.33
2022-09-21T01:06:01.329Z,97.14
2022-09-21T01:08:29.247Z,97.13
2022-09-21T01:11:14.639Z,97.15
2022-09-21T01:13:59.998Z,97.22
2022-09-21T01:16:39.312Z,97.21
2022-09-21T01:19:21.443Z,97.18
2022-09-21T01:22:26.618Z,97.28
2022-09-21T01:25:05.664Z,97.38
2022-09-21T01:27:52.515Z,97.37
2022-09-21T01:30:21.797Z,97.34
2022-09-21T01:33:07.416Z,96.98
2022-09-21T01:35:39.924Z,96.89
2022-09-21T01:38:32.706Z,97.12
2022-09-21T01:41:04.308Z,97.19
2022-09-21T01:43:48.496Z,96.99
2022-09-21T01:46:19.850Z,96.86
2022-09-21T01:48:52.158Z,97.21
2022-09-21T01:51:21.977Z,97.13
2022-09-21T01:53:53.165Z,97.09
2022-09-21T01:56:33.294Z,97.12
2022-09-21T01:59:18.382Z,97.12
2022-09-21T02:01:53.718Z,97.11
2022-09-21T02:04:20.595Z,97.34
2022-09-21T02:06:49.405Z,97.19
2022-09-21T02:09:17.367Z,97.25
2022-09-21T02:11:45.038Z,97.40
2022-09-21T02:14:18.205Z,97.39
2022-09-21T02:16:55.380Z,97.66
2022-09-21T02:19:55.683Z,97.75
2022-09-21T02:23:25.061Z,97.44
2022-09-21T02:26:10.664Z,97.65
2022-09-21T02:29:01.549Z,98.23
2022-09-21T02:31:56.744Z,98.25
2022-09-21T02:34:45.751Z,98.61
2022-09-21T02:37:35.621Z,99.00
2022-09-21T02:40:30.444Z,99.01
2022-09-21T02:43:06.659Z,99.02
2022-09-21T02:45:42.355Z,99.03
2022-09-21T02:48:16.769Z,99.16
2022-09-21T02:50:52.005Z,99.09
2022-09-21T02:53:26.222Z,98.93
2022-09-21T02:55:56.681Z,98.59
2022-09-21T02:58:27.105Z,98.40
2022-09-21T03:00:57.072Z,98.29
2022-09-21T03:03:25.094Z,98.34
2022-09-21T03:05:55.762Z,98.09
2022-09-21T03:08:22.577Z,97.99
2022-09-21T03:10:50.713Z,98.12
2022-09-21T03:13:18.951Z,98.25
2022-09-21T03:15:46.290Z,98.36
2022-09-21T03:18:13.374Z,97.96
2022-09-21T03:20:46.002Z,97.79
2022-09-21T03:23:13.604Z,97.78
2022-09-21T03:25:40.599Z,97.87
2022-09-21T03:28:07.426Z,98.08
2022-09-21T03:30:35.559Z,98.23
2022-09-21T03:33:04.873Z,98.36
2022-09-21T03:35:33.962Z,99.04
2022-09-21T03:38:01.410Z,99.00
2022-09-21T03:40:28.595Z,99.33
2022-09-21T03:42:55.665Z,99.78
2022-09-21T03:45:23.018Z,99.72
2022-09-21T03:47:49.850Z,99.75
2022-09-21T03:50:17.220Z,99.71
2022-09-21T03:52:44.022Z,99.67
2022-09-21T03:55:10.777Z,99.86
2022-09-21T03:57:38.460Z,100.00
2022-09-21T04:00:09.199Z,100.00
2022-09-21T04:02:37.501Z,100.00
2022-09-21T04:05:04.618Z,100.00
2022-09-21T04:07:35.175Z,100.00
2022-09-21T04:10:04.049Z,99.77
2022-09-21T04:12:31.278Z,99.95
2022-09-21T04:14:58.278Z,99.81
2022-09-21T04:17:25.082Z,99.79
2022-09-21T04:19:52.122Z,100.00
2022-09-21T04:22:19.043Z,100.00
2022-09-21T04:24:45.938Z,100.00
2022-09-21T04:27:12.956Z,100.00
2022-09-21T04:29:39.793Z,100.00
2022-09-21T04:32:07.030Z,100.00
2022-09-21T04:34:33.777Z,100.00
2022-09-21T04:37:00.559Z,100.00
2022-09-21T04:39:27.365Z,100.00
2022-09-21T04:41:54.402Z,100.00
2022-09-21T04:44:21.198Z,100.00
2022-09-21T04:46:48.064Z,100.00
2022-09-21T04:49:14.824Z,100.00
2022-09-21T04:51:41.720Z,100.00
2022-09-21T04:54:08.547Z,100.00
2022-09-21T04:56:38.190Z,100.00
2022-09-21T04:59:05.304Z,100.00
2022-09-21T05:01:32.265Z,100.00
2022-09-21T05:04:01.875Z,100.00
2022-09-21T05:06:33.766Z,100.00
2022-09-21T05:09:19.457Z,100.00
2022-09-21T05:11:46.565Z,100.00
2022-09-21T05:14:13.476Z,100.00
2022-09-21T05:16:40.360Z,100.00
2022-09-21T05:19:07.633Z,100.00
2022-09-21T05:21:34.677Z,100.00
2022-09-21T05:24:01.834Z,100.00
2022-09-21T05:26:28.620Z,100.00
2022-09-21T05:28:55.753Z,100.00
2022-09-21T05:31:36.155Z,100.00
2022-09-21T05:34:18.978Z,100.00
2022-09-21T05:37:18.441Z,99.97
2022-09-21T05:39:45.801Z,99.99
2022-09-21T05:42:13.108Z,99.81
2022-09-21T05:44:40.220Z,99.66
2022-09-21T05:47:38.456Z,99.97
2022-09-21T05:50:23.776Z,100.00
2022-09-21T05:53:09.476Z,99.78
2022-09-21T05:55:56.727Z,99.63
2022-09-21T05:58:32.518Z,99.56
2022-09-21T06:01:11.452Z,99.62
2022-09-21T06:03:39.288Z,99.29
2022-09-21T06:06:09.011Z,98.94
2022-09-21T06:08:35.952Z,98.98
2022-09-21T06:11:02.858Z,98.75
2022-09-21T06:13:29.743Z,98.64
2022-09-21T06:15:57.114Z,98.19
2022-09-21T06:18:23.893Z,97.91
2022-09-21T06:20:50.716Z,97.36
2022-09-21T06:23:17.563Z,97.11
2022-09-21T06:25:44.394Z,95.86
2022-09-21T06:28:13.226Z,95.27
2022-09-21T06:30:42.422Z,94.82
2022-09-21T06:33:09.829Z,94.80
2022-09-21T06:35:36.955Z,93.59
2022-09-21T06:38:06.690Z,93.01
2022-09-21T06:40:35.347Z,93.00
2022-09-21T06:43:04.656Z,91.49
2022-09-21T06:45:31.677Z,91.41
2022-09-21T06:47:58.867Z,90.91
2022-09-21T06:53:15.602Z,89.78
2022-09-21T06:55:42.663Z,89.40
2022-09-21T06:58:11.437Z,88.39
2022-09-21T07:00:38.406Z,87.38
2022-09-21T07:03:05.853Z,86.58
2022-09-21T07:05:34.226Z,85.40
2022-09-21T07:08:01.405Z,83.96
2022-09-21T07:10:28.724Z,84.29
2022-09-21T07:12:55.918Z,83.10
2022-09-21T07:15:23.717Z,81.88
2022-09-21T07:17:52.260Z,83.15
2022-09-21T07:20:19.550Z,83.39
2022-09-21T07:23:08.529Z,82.95
2022-09-21T07:25:35.282Z,81.28
2022-09-21T07:28:02.631Z,80.48
2022-09-21T07:30:29.416Z,78.41
2022-09-21T07:32:56.324Z,74.76
2022-09-21T07:35:23.156Z,73.39
2022-09-21T07:37:50.078Z,71.87
2022-09-21T07:40:17.888Z,69.52
2022-09-21T07:42:46.624Z,69.05
2022-09-21T07:45:13.545Z,67.93
2022-09-21T07:47:40.377Z,69.99
2022-09-21T07:50:07.548Z,68.51
2022-09-21T07:52:35.160Z,68.56
2022-09-21T07:55:01.944Z,66.33
2022-09-21T07:57:47.332Z,64.39
2022-09-21T08:00:14.887Z,63.48
2022-09-21T08:02:46.595Z,62.50
2022-09-21T08:05:14.506Z,61.92
2022-09-21T08:07:41.799Z,59.22
2022-09-21T08:10:09.854Z,62.22
2022-09-21T08:12:36.700Z,63.05
2022-09-21T08:15:03.821Z,61.03
2022-09-21T08:17:30.677Z,61.39
2022-09-21T08:20:18.576Z,59.36
2022-09-21T08:23:06.225Z,59.53
2022-09-21T08:25:34.371Z,56.48
2022-09-21T08:38:48.429Z,53.68
2022-09-21T08:41:40.688Z,53.68
2022-09-21T08:44:16.645Z,55.58
2022-09-21T08:46:46.396Z,55.74
2022-09-21T08:49:19.878Z,55.50
2022-09-21T08:52:00.624Z,56.58
2022-09-21T08:54:42.449Z,56.70
2022-09-21T08:57:16.316Z,56.49
2022-09-21T08:59:46.268Z,56.21
2022-09-21T09:02:44.144Z,53.42
2022-09-21T09:05:35.934Z,51.79
2022-09-21T09:08:22.020Z,50.44
2022-09-21T09:11:25.111Z,49.52
2022-09-21T09:14:11.724Z,48.41
2022-09-21T09:16:38.513Z,50.73
2022-09-21T09:19:32.793Z,49.87
2022-09-21T09:22:04.407Z,48.44
2022-09-21T09:24:41.503Z,47.94
2022-09-21T09:27:18.818Z,47.39
2022-09-21T09:30:03.904Z,46.28
2022-09-21T09:32:44.233Z,45.37
2022-09-21T09:35:28.692Z,45.88
2022-09-21T09:38:00.028Z,44.95
2022-09-21T09:41:01.435Z,43.95
2022-09-21T09:43:40.250Z,43.65
2022-09-21T09:46:21.955Z,42.07
2022-09-21T09:49:18.846Z,44.08
2022-09-21T09:51:46.713Z,42.64
2022-09-21T09:54:16.067Z,41.28
2022-09-21T09:56:43.838Z,44.21
2022-09-21T09:59:19.996Z,41.35
2022-09-21T10:01:47.511Z,39.94
2022-09-21T10:04:17.721Z,40.70
2022-09-21T10:06:46.684Z,40.06
2022-09-21T10:09:32.585Z,39.06
2022-09-21T10:12:15.744Z,39.49
2022-09-21T10:14:49.635Z,37.80
2022-09-21T10:17:18.673Z,40.18
2022-09-21T10:19:46.212Z,39.31
2022-09-21T10:22:19.062Z,37.66
2022-09-21T10:24:56.343Z,37.51
2022-09-21T10:27:45.138Z,38.58
2022-09-21T10:30:34.977Z,40.51
2022-09-21T10:33:02.276Z,42.57
2022-09-21T10:35:29.996Z,45.04
2022-09-21T10:38:22.605Z,42.59
2022-09-21T10:40:50.440Z,40.18
2022-09-21T10:43:43.673Z,38.06
2022-09-21T10:46:11.720Z,38.31
2022-09-21T10:48:38.851Z,34.53
2022-09-21T10:51:05.868Z,38.16
2022-09-21T10:53:36.190Z,40.54
2022-09-21T10:56:15.617Z,39.88
2022-09-21T10:59:20.761Z,37.37
2022-09-21T11:01:50.486Z,33.89
2022-09-21T11:04:36.243Z,32.86
2022-09-21T11:07:25.201Z,33.75
2022-09-21T11:09:58.624Z,32.71
2022-09-21T11:12:49.059Z,33.12
2022-09-21T11:15:20.316Z,31.42
2022-09-21T11:18:18.654Z,31.38
2022-09-21T11:20:58.517Z,31.87
2022-09-21T11:24:02.501Z,31.40
2022-09-21T11:26:37.903Z,33.45
2022-09-21T11:32:19.326Z,30.72
2022-09-21T11:35:17.028Z,30.86
2022-09-21T11:37:50.273Z,33.70
2022-09-21T11:41:14.288Z,36.42
2022-09-21T11:44:19.338Z,40.70
2022-09-21T11:47:02.929Z,40.62
2022-09-21T11:49:37.852Z,36.27
2022-09-21T11:52:47.465Z,34.99
2022-09-21T11:55:44.557Z,32.63
2022-09-21T11:58:23.279Z,30.06
2022-09-21T12:00:51.359Z,29.89
2022-09-21T12:03:36.181Z,34.59
2022-09-21T12:06:32.762Z,36.62
2022-09-21T12:09:24.529Z,38.96
2022-09-21T12:11:57.615Z,40.53
2022-09-21T12:14:45.942Z,42.27
2022-09-21T12:17:27.860Z,40.81
2022-09-21T12:20:12.906Z,36.30
2022-09-21T12:22:44.303Z,34.05
2022-09-21T12:25:17.183Z,32.74
2022-09-21T12:27:50.622Z,32.57
2022-09-21T12:30:22.647Z,33.92
2022-09-21T12:32:58.313Z,30.85
2022-09-21T12:35:39.420Z,32.58
2022-09-21T12:38:16.485Z,31.53
2022-09-21T12:40:57.737Z,33.04
2022-09-21T12:43:58.701Z,31.85
2022-09-21T12:46:37.953Z,30.23
2022-09-21T12:49:28.323Z,29.98
2022-09-21T12:52:00.817Z,28.98
2022-09-21T12:54:30.457Z,33.57
2022-09-21T12:57:38.168Z,32.97
2022-09-21T13:00:07.457Z,32.58
2022-09-21T13:02:42.010Z,32.89
2022-09-21T13:05:35.146Z,33.39
2022-09-21T13:08:14.170Z,32.26
2022-09-21T13:11:05.324Z,32.07
2022-09-21T13:13:38.945Z,30.11
2022-09-21T13:16:07.931Z,31.22
2022-09-21T13:18:37.983Z,30.56
2022-09-21T13:21:40.460Z,29.23
2022-09-21T13:24:26.174Z,29.42
2022-09-21T13:26:56.143Z,29.63
2022-09-21T13:29:22.989Z,28.79
2022-09-21T13:32:14.362Z,31.20
2022-09-21T13:34:42.963Z,28.90
2022-09-21T13:37:11.165Z,31.93
2022-09-21T13:40:01.340Z,33.99
2022-09-21T13:42:34.898Z,33.97
2022-09-21T13:45:14.993Z,35.38
2022-09-21T13:47:44.363Z,32.27
2022-09-21T13:50:43.077Z,33.12
2022-09-21T13:53:23.788Z,31.35
2022-09-21T13:56:12.010Z,30.94
2022-09-21T13:58:48.032Z,29.92
2022-09-21T14:01:42.477Z,29.73
2022-09-21T14:04:39.486Z,28.94
2022-09-21T14:07:08.107Z,28.33
2022-09-21T14:09:53.690Z,29.27
2022-09-21T14:12:25.143Z,30.25
2022-09-21T14:15:12.589Z,31.13
2022-09-21T14:17:40.989Z,32.86
2022-09-21T14:20:30.296Z,32.35
2022-09-21T14:23:16.410Z,32.14
2022-09-21T14:25:56.875Z,33.44
2022-09-21T14:28:51.325Z,35.64
2022-09-21T14:31:34.399Z,36.26
2022-09-21T14:34:04.664Z,36.96
2022-09-21T14:36:42.140Z,37.89
2022-09-21T14:39:32.079Z,37.95
2022-09-21T14:42:04.779Z,39.93
2022-09-21T14:44:35.387Z,40.88
2022-09-21T14:47:05.152Z,40.18
2022-09-21T14:49:40.475Z,39.88
2022-09-21T14:52:32.367Z,40.50
2022-09-21T14:55:25.125Z,41.32
2022-09-21T14:58:16.420Z,42.04
2022-09-21T15:00:46.285Z,42.17
2022-09-21T15:03:25.929Z,43.52
2022-09-21T15:06:23.489Z,44.65
2022-09-21T15:09:25.001Z,45.09
2022-09-21T15:12:07.446Z,45.02
2022-09-21T15:14:41.374Z,46.04
2022-09-21T15:17:29.965Z,46.32
2022-09-21T15:20:15.162Z,46.61
2022-09-21T15:22:45.360Z,44.59
2022-09-21T15:25:13.496Z,44.95
2022-09-21T15:27:44.752Z,44.92
2022-09-21T15:30:24.544Z,44.95
2022-09-21T15:32:56.674Z,45.65
2022-09-21T15:35:32.684Z,45.03
2022-09-21T15:38:01.386Z,45.53
2022-09-21T15:40:32.598Z,45.13
2022-09-21T15:43:01.121Z,45.36
2022-09-21T15:45:37.278Z,47.12
2022-09-21T15:48:13.542Z,47.14
2022-09-21T15:50:43.203Z,48.64
2022-09-21T15:53:22.004Z,48.21
2022-09-21T15:55:49.638Z,47.91
2022-09-21T15:58:46.035Z,48.22
2022-09-21T16:01:16.190Z,47.97
2022-09-21T16:03:43.820Z,47.96
2022-09-21T16:06:45.260Z,49.66
2022-09-21T16:09:23.948Z,49.13
2022-09-21T16:11:54.251Z,50.03
2022-09-21T16:14:40.654Z,49.76
2022-09-21T16:17:13.612Z,49.88
2022-09-21T16:19:59.809Z,51.02
2022-09-21T16:22:38.051Z,52.61
2022-09-21T16:25:19.400Z,52.73
2022-09-21T16:27:53.917Z,53.05
2022-09-21T16:30:42.564Z,54.10
2022-09-21T16:33:39.244Z,55.31
2022-09-21T16:36:26.032Z,54.98
2022-09-21T16:38:56.545Z,55.48
2022-09-21T16:41:32.296Z,56.32
2022-09-21T16:44:00.557Z,55.84
2022-09-21T16:46:27.683Z,55.88
2022-09-21T16:48:57.433Z,57.01
2022-09-21T16:51:27.086Z,57.95
2022-09-21T16:53:55.969Z,57.77
2022-09-21T16:56:22.925Z,59.19
2022-09-21T16:58:49.758Z,59.52
2022-09-21T17:01:20.794Z,59.63
2022-09-21T17:03:48.195Z,59.71
2022-09-21T17:06:21.644Z,60.90
2022-09-21T17:08:49.692Z,60.91
2022-09-21T17:11:20.048Z,60.71
2022-09-21T17:13:48.158Z,61.29
2022-09-21T17:16:18.938Z,61.70
2022-09-21T17:18:51.497Z,62.85
2022-09-21T17:21:18.311Z,62.54
2022-09-21T17:23:45.470Z,63.27
2022-09-21T17:26:19.397Z,63.22
2022-09-21T17:28:46.299Z,63.40
2022-09-21T17:31:16.420Z,63.94
2022-09-21T17:33:43.635Z,63.59
2022-09-21T17:36:14.878Z,64.96
2022-09-21T17:38:42.505Z,65.19
2022-09-21T17:41:22.058Z,65.12
2022-09-21T17:44:03.589Z,65.58
2022-09-21T17:46:42.948Z,65.73
2022-09-21T17:49:11.440Z,65.44
2022-09-21T17:51:57.226Z,66.03
2022-09-21T17:54:24.333Z,66.05
2022-09-21T17:56:58.055Z,67.19
2022-09-21T17:59:35.015Z,68.07
2022-09-21T18:02:03.586Z,67.53
2022-09-21T18:04:34.682Z,68.16
2022-09-21T18:07:03.301Z,68.91
2022-09-21T18:09:30.495Z,68.41
2022-09-21T18:12:18.233Z,68.60
2022-09-21T18:14:53.049Z,69.41
2022-09-21T18:17:25.838Z,69.05
2022-09-21T18:20:31.419Z,69.19
2022-09-21T18:23:19.470Z,70.18
2022-09-21T18:25:49.955Z,71.14
2022-09-21T18:28:31.556Z,71.57
2022-09-21T18:31:25.152Z,72.36
2022-09-21T18:33:56.909Z,71.82
2022-09-21T18:36:42.748Z,70.94
2022-09-21T18:39:31.411Z,71.08
2022-09-21T18:42:22.570Z,71.98
2022-09-21T18:45:10.624Z,72.85
2022-09-21T18:47:48.338Z,72.93
2022-09-21T18:50:22.362Z,72.57
2022-09-21T18:53:06.578Z,72.12
2022-09-21T18:55:33.844Z,72.78
2022-09-21T18:58:01.499Z,72.28
2022-09-21T19:00:35.147Z,72.81
2022-09-21T19:03:22.644Z,72.76
2022-09-21T19:06:07.732Z,72.42
2022-09-21T19:08:43.565Z,73.19
2022-09-21T19:11:22.849Z,73.42
2022-09-21T19:14:07.545Z,74.55
2022-09-21T19:16:40.097Z,74.21
2022-09-21T19:19:19.891Z,76.61
2022-09-21T19:22:12.091Z,75.75
2022-09-21T19:25:16.626Z,76.66
2022-09-21T19:27:57.309Z,76.18
2022-09-21T19:30:24.374Z,76.38
2022-09-21T19:32:53.235Z,76.21
2022-09-21T19:35:28.893Z,76.60
2022-09-21T19:37:58.309Z,77.12
2022-09-21T19:40:32.418Z,76.49
2022-09-21T19:43:13.392Z,76.83
2022-09-21T19:45:45.161Z,76.17
2022-09-21T19:48:15.661Z,76.12
2022-09-21T19:50:54.711Z,76.42
2022-09-21T19:53:41.116Z,77.21
2022-09-21T19:56:33.141Z,77.60
2022-09-21T19:59:19.781Z,77.62
2022-09-21T20:01:53.679Z,77.59
2022-09-21T20:04:48.911Z,78.63
2022-09-21T20:07:21.724Z,79.00
2022-09-21T20:10:24.753Z,78.60
2022-09-21T20:13:13.180Z,78.26
2022-09-21T20:15:49.802Z,78.77
2022-09-21T20:18:41.563Z,78.87
2022-09-21T20:21:13.871Z,80.02
2022-09-21T20:23:41.251Z,80.86
2022-09-21T20:26:26.254Z,80.83
2022-09-21T20:28:54.312Z,80.61
2022-09-21T20:31:26.333Z,79.77
2022-09-21T20:33:53.161Z,80.49
2022-09-21T20:36:20.074Z,80.20
2022-09-21T20:38:46.905Z,80.37
2022-09-21T20:41:16.428Z,79.35
2022-09-21T20:43:43.456Z,79.03
2022-09-21T20:46:11.483Z,79.31
2022-09-21T20:48:38.469Z,79.17
2022-09-21T20:51:06.251Z,80.06
2022-09-21T20:53:34.184Z,79.31
2022-09-21T20:56:02.059Z,79.20
2022-09-21T20:58:30.275Z,79.19
2022-09-21T21:01:04.245Z,79.80
2022-09-21T21:03:31.172Z,79.64
2022-09-21T21:06:12.239Z,80.26
2022-09-21T21:08:39.432Z,80.44
2022-09-21T21:11:06.845Z,79.80
2022-09-21T21:13:33.914Z,80.25
2022-09-21T21:16:00.853Z,80.29
2022-09-21T21:18:27.758Z,80.75
2022-09-21T21:20:54.571Z,80.52
2022-09-21T21:23:21.441Z,80.40
2022-09-21T21:25:49.111Z,80.98
2022-09-21T21:28:16.029Z,81.15
2022-09-21T21:30:42.852Z,81.53
2022-09-21T21:33:10.235Z,81.02
2022-09-21T21:35:37.515Z,80.80
2022-09-21T21:38:04.302Z,80.63
2022-09-21T21:40:31.446Z,80.76
2022-09-21T21:42:58.172Z,81.01
2022-09-21T21:45:24.989Z,81.01
2022-09-21T21:47:51.826Z,81.47
2022-09-21T21:50:18.631Z,81.47
2022-09-21T21:52:45.483Z,81.49
2022-09-21T21:55:12.552Z,81.87
2022-09-21T21:57:40.051Z,82.02
2022-09-21T22:00:08.948Z,82.20
2022-09-21T22:02:35.896Z,83.19
2022-09-21T22:05:02.712Z,83.75
2022-09-21T22:07:29.684Z,83.58
2022-09-21T22:09:56.446Z,83.70
2022-09-21T22:12:23.367Z,83.95
2022-09-21T22:14:50.162Z,84.07
2022-09-21T22:17:16.990Z,84.49
2022-09-21T22:19:44.065Z,84.56
2022-09-21T22:22:10.886Z,84.46
2022-09-21T22:24:37.608Z,84.78
2022-09-21T22:27:04.549Z,84.67
2022-09-21T22:29:31.488Z,84.37
2022-09-21T22:31:58.358Z,84.28
2022-09-21T22:34:25.318Z,84.17
2022-09-21T22:36:52.115Z,83.96
2022-09-21T22:39:18.904Z,83.90
2022-09-21T22:41:45.628Z,84.08
2022-09-21T22:44:12.434Z,84.17
2022-09-21T22:46:39.406Z,84.14
2022-09-21T22:49:06.421Z,83.90
2022-09-21T22:51:33.876Z,84.37
2022-09-21T22:54:01.613Z,84.82
2022-09-21T22:56:30.794Z,84.76
2022-09-21T22:59:03.665Z,84.94
2022-09-21T23:01:33.444Z,84.91
2022-09-21T23:04:03.072Z,85.22
2022-09-21T23:06:33.476Z,85.60
2022-09-21T23:09:02.422Z,85.94
2022-09-21T23:11:33.203Z,85.95
2022-09-21T23:14:00.735Z,86.51
2022-09-21T23:16:28.984Z,86.54
2022-09-21T23:18:57.551Z,86.55
2022-09-21T23:21:27.371Z,86.74
2022-09-21T23:24:02.407Z,86.98
2022-09-21T23:26:32.170Z,87.05
2022-09-21T23:29:01.333Z,87.38
2022-09-21T23:31:29.869Z,87.67
2022-09-21T23:33:59.863Z,87.87
2022-09-21T23:36:28.881Z,87.50
2022-09-21T23:38:56.000Z,87.71
2022-09-21T23:41:34.458Z,87.64
2022-09-21T23:44:01.835Z,87.68
2022-09-21T23:46:32.390Z,87.74
2022-09-21T23:49:00.066Z,87.58
2022-09-21T23:51:27.551Z,87.86
2022-09-21T23:53:54.945Z,87.87
2022-09-21T23:56:23.467Z,88.15
2022-09-21T23:58:50.990Z,88.58
